Time;durP1;ratioP1;P1;durP2;ratioP2;P2;SDS_P1;SDS_P2;PMS_P1;PMS_P2;Temp;Humidity;BMP_temperature;BMP_pressure;BME280_temperature;BME280_humidity;BME280_pressure;Samples;Min_cycle;Max_cycle;Signal;HPM_P1;HPM_P2
2022/05/05 00:01:34;;;;;;;1.03;1.03;;;;;;;14.96;100.00;100400.53;5052294;28;20928;-54
2022/05/05 00:04:01;;;;;;;0.70;0.70;;;;;;;15.01;99.22;100400.31;5052419;28;20868;-54
2022/05/05 00:06:28;;;;;;;18.87;2.40;;;;;;;15.28;97.27;100404.41;5051136;28;20851;-55
2022/05/05 00:08:55;;;;;;;0.40;0.30;;;;;;;15.34;95.66;100398.75;5052468;28;20508;-54
2022/05/05 00:17:10;;;;;;;0.40;0.30;;;;;;;15.25;95.73;100396.53;4990781;28;20452;-54
2022/05/05 00:19:41;;;;;;;0.60;0.60;;;;;;;15.33;95.10;100388.13;5024046;28;20498;-54
2022/05/05 00:22:09;;;;;;;0.40;0.20;;;;;;;15.39;94.92;100391.41;5044575;28;20509;-55
2022/05/05 00:24:39;;;;;;;0.30;0.30;;;;;;;15.64;94.47;100393.81;5045886;28;20451;-55
2022/05/05 00:27:07;;;;;;;0.67;0.67;;;;;;;15.75;92.67;100385.25;5045354;28;20462;-55
2022/05/05 00:29:34;;;;;;;0.30;0.30;;;;;;;15.70;92.23;100388.16;5032370;28;20505;-54
2022/05/05 00:32:01;;;;;;;0.40;0.40;;;;;;;15.73;91.73;100388.94;5045709;28;20577;-54
2022/05/05 00:34:27;;;;;;;0.30;0.20;;;;;;;15.53;91.98;100380.03;5058922;28;20438;-54
2022/05/05 00:36:54;;;;;;;1.67;1.67;;;;;;;15.66;88.95;100383.91;5044418;28;20557;-54
2022/05/05 00:39:20;;;;;;;0.60;0.40;;;;;;;15.80;85.23;100377.00;5051902;28;20525;-54
2022/05/05 00:41:48;;;;;;;0.30;0.20;;;;;;;15.67;84.40;100376.72;5051350;28;20495;-55
2022/05/05 00:44:15;;;;;;;0.30;0.20;;;;;;;15.47;82.16;100377.63;5039866;28;20475;-54
2022/05/05 00:46:50;;;;;;;0.37;0.20;;;;;;;15.76;78.10;100370.94;5051576;28;20474;-54
2022/05/05 00:49:17;;;;;;;0.30;0.20;;;;;;;15.78;77.07;100370.84;5051910;28;20544;-55
2022/05/05 00:51:44;;;;;;;0.30;0.20;;;;;;;15.77;73.84;100379.84;5051508;28;20827;-55
2022/05/05 00:54:11;;;;;;;0.30;0.20;;;;;;;15.70;71.01;100372.09;5042602;28;20451;-54
2022/05/05 00:56:38;;;;;;;1.27;1.03;;;;;;;15.41;72.61;100369.91;5047943;28;20617;-54
2022/05/05 00:59:05;;;;;;;0.30;0.20;;;;;;;15.27;72.95;100373.22;5054457;28;20522;-55
2022/05/05 01:01:33;;;;;;;0.30;0.20;;;;;;;15.28;73.70;100372.28;5056236;28;20455;-55
2022/05/05 01:04:00;;;;;;;0.30;0.20;;;;;;;15.60;72.59;100376.13;5055783;28;20458;-54
2022/05/05 01:06:29;;;;;;;0.40;0.30;;;;;;;15.33;74.97;100372.91;5055447;28;20471;-55
2022/05/05 01:08:56;;;;;;;0.33;0.23;;;;;;;15.60;73.53;100383.31;5055616;28;20457;-55
2022/05/05 01:11:22;;;;;;;0.30;0.20;;;;;;;15.56;73.60;100387.91;5055792;28;20483;-54
2022/05/05 01:13:49;;;;;;;0.30;0.30;;;;;;;15.59;73.48;100378.84;5055767;28;20450;-54
2022/05/05 01:16:16;;;;;;;0.30;0.20;;;;;;;15.52;74.57;100367.59;5055414;28;20475;-54
2022/05/05 01:18:43;;;;;;;0.30;0.20;;;;;;;14.97;76.58;100378.19;5055406;28;20814;-55
2022/05/05 01:21:11;;;;;;;0.37;0.20;;;;;;;15.45;74.04;100370.63;5055315;28;20512;-54
2022/05/05 01:23:38;;;;;;;0.30;0.20;;;;;;;15.24;74.12;100377.84;5037733;28;20458;-55
2022/05/05 01:28:52;;;;;;;0.40;0.30;;;;;;;15.17;73.85;100379.94;5055369;28;20450;-55
2022/05/05 01:31:19;;;;;;;4.37;1.80;;;;;;;14.92;78.14;100374.81;5055370;28;20490;-54
2022/05/05 01:33:45;;;;;;;0.30;0.20;;;;;;;14.89;80.40;100387.47;5056748;28;20453;-55
2022/05/05 01:36:12;;;;;;;0.40;0.30;;;;;;;14.89;81.68;100391.03;5059485;28;20471;-54
2022/05/05 01:38:41;;;;;;;0.47;0.47;;;;;;;14.86;83.29;100391.16;5049763;28;20514;-54
2022/05/05 01:41:09;;;;;;;0.30;0.20;;;;;;;14.75;84.09;100388.97;5055115;28;21026;-54
2022/05/05 01:43:37;;;;;;;1.63;1.00;;;;;;;14.72;85.60;100388.25;5041800;28;20448;-55
2022/05/05 01:46:05;;;;;;;0.30;0.30;;;;;;;14.56;84.46;100396.06;5054893;28;20470;-55
2022/05/05 01:48:33;;;;;;;0.30;0.20;;;;;;;14.57;85.31;100394.25;5055041;28;20504;-55
2022/05/05 01:51:00;;;;;;;0.30;0.20;;;;;;;14.64;86.55;100391.22;5055067;28;20446;-54
2022/05/05 01:53:27;;;;;;;0.37;0.30;;;;;;;14.56;90.25;100401.41;5051765;28;20866;-54
2022/05/05 01:55:54;;;;;;;0.30;0.20;;;;;;;14.44;91.71;100389.44;5044847;28;20506;-55
2022/05/05 01:58:21;;;;;;;0.40;0.40;;;;;;;14.39;89.64;100394.09;5054681;28;20907;-54
2022/05/05 02:00:47;;;;;;;0.30;0.20;;;;;;;14.39;92.06;100396.75;5054539;28;20520;-54
2022/05/05 02:03:14;;;;;;;0.30;0.20;;;;;;;14.38;89.26;100400.34;5054713;28;20827;-54
2022/05/05 02:05:45;;;;;;;0.43;0.40;;;;;;;14.40;90.57;100401.19;5054758;28;20466;-54
2022/05/05 02:08:12;;;;;;;0.30;0.20;;;;;;;14.39;90.59;100398.53;5054761;28;20482;-55
2022/05/05 02:10:39;;;;;;;0.30;0.20;;;;;;;14.43;90.67;100397.50;5053597;28;20948;-54
2022/05/05 02:13:07;;;;;;;0.30;0.20;;;;;;;14.42;90.19;100399.31;5054562;28;20454;-54
2022/05/05 02:15:34;;;;;;;0.40;0.40;;;;;;;14.31;89.82;100411.38;5054767;28;20544;-54
2022/05/05 02:18:12;;;;;;;0.30;0.20;;;;;;;14.43;90.44;100402.84;5054844;28;20458;-54
2022/05/05 02:20:40;;;;;;;0.30;0.20;;;;;;;14.31;87.87;100417.59;5054897;28;20522;-55
2022/05/05 02:23:08;;;;;;;0.30;0.20;;;;;;;14.38;87.90;100418.19;5054295;28;20496;-54
2022/05/05 02:25:35;;;;;;;0.40;0.20;;;;;;;14.29;87.33;100415.94;5040976;28;20550;-55
2022/05/05 02:28:02;;;;;;;0.73;0.73;;;;;;;14.32;88.25;100413.13;5054571;28;20822;-55
2022/05/05 02:30:29;;;;;;;0.30;0.20;;;;;;;14.40;89.72;100413.69;5054255;28;20451;-54
2022/05/05 02:32:56;;;;;;;0.30;0.20;;;;;;;14.57;87.58;100418.34;5054375;28;20451;-54
2022/05/05 02:35:23;;;;;;;1.30;1.03;;;;;;;14.49;87.79;100422.19;5066000;28;20983;-55
2022/05/05 02:40:36;;;;;;;0.40;0.40;;;;;;;14.43;91.68;100432.25;5053883;28;21015;-54
2022/05/05 02:43:04;;;;;;;0.30;0.20;;;;;;;14.27;92.57;100424.03;5043198;28;20459;-54
2022/05/05 02:45:30;;;;;;;0.50;0.47;;;;;;;14.15;93.45;100428.06;5051736;28;20471;-55
2022/05/05 02:47:58;;;;;;;5.63;2.20;;;;;;;14.17;94.33;100422.66;5053937;28;20939;-55
2022/05/05 02:50:25;;;;;;;0.30;0.20;;;;;;;14.15;94.92;100432.53;5053690;28;20475;-55
2022/05/05 02:52:55;;;;;;;0.30;0.20;;;;;;;14.06;94.88;100428.44;5053754;28;20454;-54
2022/05/05 02:55:22;;;;;;;0.40;0.30;;;;;;;14.01;94.62;100433.09;5040268;28;20475;-55
2022/05/05 02:57:51;;;;;;;0.30;0.20;;;;;;;14.07;95.90;100434.66;5053712;28;20459;-55
2022/05/05 03:00:18;;;;;;;0.30;0.30;;;;;;;14.04;97.03;100432.97;5053792;28;20540;-55
2022/05/05 03:02:44;;;;;;;0.30;0.20;;;;;;;13.90;97.09;100432.66;5053718;28;20894;-54
2022/05/05 03:05:13;;;;;;;2.10;0.97;;;;;;;14.04;94.49;100430.28;5053403;28;21002;-55
2022/05/05 03:07:41;;;;;;;0.40;0.30;;;;;;;14.48;90.92;100433.84;5053602;28;20450;-55
2022/05/05 03:10:09;;;;;;;0.37;0.30;;;;;;;14.23;92.96;100433.94;5033567;28;20460;-54
2022/05/05 03:12:36;;;;;;;0.30;0.20;;;;;;;14.20;93.69;100433.22;5046876;28;20486;-54
2022/05/05 03:15:03;;;;;;;0.33;0.27;;;;;;;14.08;94.89;100439.06;5053395;28;20474;-55
2022/05/05 03:17:31;;;;;;;0.30;0.20;;;;;;;13.89;97.91;100439.81;5053024;28;20505;-54
2022/05/05 03:19:58;;;;;;;0.30;0.20;;;;;;;13.79;98.79;100446.44;5053254;28;20850;-54
2022/05/05 03:22:24;;;;;;;0.30;0.20;;;;;;;13.85;100.00;100448.88;5052888;28;20451;-54
2022/05/05 03:24:51;;;;;;;0.30;0.30;;;;;;;13.72;100.00;100455.63;5045461;28;20612;-55
2022/05/05 03:27:18;;;;;;;0.40;0.30;;;;;;;13.56;100.00;100446.44;5047690;28;20861;-54
2022/05/05 03:29:44;;;;;;;0.40;0.30;;;;;;;13.59;100.00;100452.56;5053162;28;20482;-54
2022/05/05 03:32:11;;;;;;;0.40;0.27;;;;;;;13.33;100.00;100456.22;5052839;28;20451;-54
2022/05/05 03:34:38;;;;;;;0.50;0.33;;;;;;;13.21;100.00;100453.13;5061541;28;20813;-54
2022/05/05 03:37:04;;;;;;;0.30;0.20;;;;;;;13.11;100.00;100457.03;5043952;28;20478;-55
2022/05/05 03:39:31;;;;;;;0.30;0.20;;;;;;;13.10;100.00;100461.50;5053036;28;20540;-55
2022/05/05 03:41:57;;;;;;;0.60;0.50;;;;;;;13.37;100.00;100466.78;5050654;28;20458;-55
2022/05/05 03:44:24;;;;;;;0.47;0.40;;;;;;;13.14;100.00;100468.44;5041949;28;20478;-55
2022/05/05 03:46:51;;;;;;;0.30;0.20;;;;;;;13.42;100.00;100463.00;5052602;28;20471;-55
2022/05/05 03:49:17;;;;;;;0.30;0.20;;;;;;;13.50;100.00;100463.59;5052717;28;20962;-55
2022/05/05 03:51:44;;;;;;;1.50;1.40;;;;;;;13.53;100.00;100457.25;5034887;28;20842;-55
2022/05/05 03:54:11;;;;;;;0.50;0.47;;;;;;;13.63;100.00;100469.34;5043217;28;20452;-55
2022/05/05 03:56:38;;;;;;;0.30;0.20;;;;;;;13.69;100.00;100465.53;5049299;28;20524;-55
2022/05/05 03:59:06;;;;;;;0.40;0.30;;;;;;;13.49;100.00;100471.66;5052893;28;21017;-55
2022/05/05 04:01:32;;;;;;;0.30;0.20;;;;;;;13.48;100.00;100470.78;5052521;28;20493;-55
2022/05/05 04:03:59;;;;;;;0.60;0.60;;;;;;;13.84;99.13;100468.53;5052694;28;20454;-55
2022/05/05 04:06:26;;;;;;;0.30;0.20;;;;;;;13.09;100.00;100467.75;5052414;28;20995;-55
2022/05/05 04:08:52;;;;;;;0.30;0.20;;;;;;;13.05;100.00;100467.00;5052698;28;20536;-55
2022/05/05 04:11:19;;;;;;;2.60;1.60;;;;;;;12.96;100.00;100474.44;5052480;28;20443;-55
2022/05/05 04:13:46;;;;;;;0.73;0.73;;;;;;;12.87;100.00;100472.09;5052377;28;20501;-55
2022/05/05 04:16:13;;;;;;;0.60;0.60;;;;;;;12.90;100.00;100480.88;5052305;28;20540;-55
2022/05/05 04:18:40;;;;;;;0.40;0.30;;;;;;;12.80;100.00;100478.59;5052219;28;20453;-55
2022/05/05 04:21:07;;;;;;;0.40;0.30;;;;;;;12.65;100.00;100477.31;5052278;28;20486;-54
2022/05/05 04:23:34;;;;;;;0.80;0.80;;;;;;;12.93;100.00;100471.91;5052022;28;20957;-55
2022/05/05 04:26:11;;;;;;;0.30;0.20;;;;;;;12.84;100.00;100473.09;5038773;28;20463;-55
2022/05/05 04:28:39;;;;;;;0.30;0.20;;;;;;;13.00;100.00;100479.63;5051932;28;20530;-55
2022/05/05 04:31:06;;;;;;;0.60;0.60;;;;;;;12.92;100.00;100483.50;5052285;28;20447;-55
2022/05/05 04:33:32;;;;;;;0.53;0.53;;;;;;;13.11;100.00;100486.38;5051805;28;20451;-54
2022/05/05 04:35:59;;;;;;;1.63;1.53;;;;;;;13.14;100.00;100495.13;5059248;28;20463;-54
2022/05/05 04:38:26;;;;;;;0.30;0.20;;;;;;;13.09;100.00;100494.44;5044916;28;20447;-54
2022/05/05 04:40:52;;;;;;;0.30;0.20;;;;;;;12.97;100.00;100501.06;5051583;28;20487;-54
2022/05/05 04:43:19;;;;;;;2.57;0.80;;;;;;;13.01;100.00;100515.19;5039358;28;20448;-54
2022/05/05 04:45:45;;;;;;;0.30;0.20;;;;;;;12.98;100.00;100517.97;5051666;28;20467;-54
2022/05/05 04:48:12;;;;;;;0.40;0.30;;;;;;;12.97;100.00;100522.41;5034267;28;20451;-55
2022/05/05 04:50:38;;;;;;;0.30;0.20;;;;;;;13.01;100.00;100521.38;5051809;28;20447;-55
2022/05/05 04:53:06;;;;;;;0.87;0.70;;;;;;;13.02;100.00;100527.63;5051702;28;20455;-54
2022/05/05 04:55:32;;;;;;;0.30;0.20;;;;;;;12.90;100.00;100533.38;5031733;28;20883;-54
2022/05/05 04:57:59;;;;;;;0.30;0.30;;;;;;;12.70;100.00;100529.56;5045433;28;20506;-54
2022/05/05 05:00:25;;;;;;;2.10;2.00;;;;;;;12.78;100.00;100534.66;5051641;28;20548;-54
2022/05/05 05:02:52;;;;;;;0.30;0.20;;;;;;;12.62;100.00;100533.44;5051804;28;20450;-54
2022/05/05 05:05:19;;;;;;;0.30;0.20;;;;;;;12.82;100.00;100541.63;5051592;28;20471;-54
2022/05/05 05:07:45;;;;;;;0.60;0.60;;;;;;;13.00;100.00;100545.47;5051468;28;20454;-54
2022/05/05 05:10:12;;;;;;;0.47;0.47;;;;;;;12.97;100.00;100550.91;5051366;28;20459;-54
2022/05/05 05:12:39;;;;;;;0.30;0.20;;;;;;;13.24;100.00;100555.31;5051800;28;20497;-54
2022/05/05 05:15:07;;;;;;;0.40;0.30;;;;;;;13.20;100.00;100550.16;5051520;28;20470;-54
2022/05/05 05:17:34;;;;;;;0.30;0.20;;;;;;;13.13;100.00;100554.78;5051790;28;20493;-54
2022/05/05 05:20:00;;;;;;;0.30;0.20;;;;;;;13.20;100.00;100552.81;5051591;28;20987;-55
2022/05/05 05:22:27;;;;;;;2.20;1.70;;;;;;;13.22;100.00;100561.66;5051161;28;20481;-54
2022/05/05 05:24:54;;;;;;;0.40;0.30;;;;;;;13.13;100.00;100556.59;5042712;28;20577;-54
2022/05/05 05:27:21;;;;;;;0.30;0.20;;;;;;;13.18;100.00;100559.97;5047107;28;20455;-54
2022/05/05 05:29:47;;;;;;;4.67;3.00;;;;;;;13.22;100.00;100569.66;5051542;28;20497;-54
2022/05/05 05:32:14;;;;;;;0.60;0.60;;;;;;;13.01;100.00;100552.53;5051397;28;21017;-54
2022/05/05 05:34:41;;;;;;;0.40;0.20;;;;;;;13.17;100.00;100564.44;5060042;28;20935;-54
2022/05/05 05:37:07;;;;;;;0.40;0.30;;;;;;;13.08;100.00;100563.88;5042595;28;20452;-54
2022/05/05 05:39:35;;;;;;;1.03;1.03;;;;;;;13.29;100.00;100568.50;5051738;28;21220;-54
2022/05/05 05:42:02;;;;;;;0.30;0.20;;;;;;;13.32;100.00;100571.09;5049059;28;20491;-54
2022/05/05 05:44:28;;;;;;;1.77;0.57;;;;;;;13.31;100.00;100562.19;5042293;28;20446;-54
2022/05/05 05:46:55;;;;;;;2.43;0.77;;;;;;;13.16;100.00;100577.84;5055073;28;20890;-54
2022/05/05 05:49:21;;;;;;;0.40;0.30;;;;;;;13.23;100.00;100574.06;5055206;28;20450;-54
2022/05/05 05:51:48;;;;;;;0.30;0.30;;;;;;;13.07;100.00;100584.38;5055324;28;20501;-54
2022/05/05 05:54:17;;;;;;;0.40;0.37;;;;;;;13.15;100.00;100584.97;5046140;28;20502;-54
2022/05/05 05:56:45;;;;;;;0.90;0.90;;;;;;;13.13;100.00;100586.81;5051280;28;20862;-54
2022/05/05 05:59:11;;;;;;;0.30;0.20;;;;;;;13.17;100.00;100590.28;5054966;28;20452;-55
2022/05/05 06:04:26;;;;;;;0.70;0.70;;;;;;;13.25;100.00;100602.44;5054816;28;20475;-55
2022/05/05 06:06:54;;;;;;;0.80;0.80;;;;;;;13.13;100.00;100592.16;5054517;28;20502;-54
2022/05/05 06:09:21;;;;;;;0.30;0.20;;;;;;;13.25;100.00;100598.91;5054838;28;20482;-54
2022/05/05 06:11:49;;;;;;;0.37;0.27;;;;;;;13.40;100.00;100590.34;5034738;28;20588;-55
2022/05/05 06:14:16;;;;;;;0.43;0.40;;;;;;;13.37;100.00;100589.59;5048309;28;20500;-54
2022/05/05 06:16:42;;;;;;;1.10;0.87;;;;;;;13.35;100.00;100597.66;5054204;28;20499;-55
2022/05/05 06:19:09;;;;;;;0.30;0.20;;;;;;;13.31;100.00;100604.91;5054436;28;20874;-54
2022/05/05 06:21:36;;;;;;;0.43;0.40;;;;;;;13.37;100.00;100594.94;5054462;28;20530;-54
2022/05/05 06:24:04;;;;;;;0.40;0.20;;;;;;;13.40;100.00;100600.16;5035890;28;20500;-54
2022/05/05 06:26:32;;;;;;;0.60;0.60;;;;;;;13.53;100.00;100599.69;5042286;28;20466;-54
2022/05/05 06:28:59;;;;;;;0.30;0.20;;;;;;;13.61;100.00;100605.63;5054130;28;20975;-55
2022/05/05 06:31:26;;;;;;;0.30;0.20;;;;;;;13.44;100.00;100604.50;5054085;28;20446;-54
2022/05/05 06:33:53;;;;;;;0.40;0.30;;;;;;;13.76;100.00;100614.00;5056323;28;20491;-55
2022/05/05 06:36:20;;;;;;;0.40;0.30;;;;;;;13.77;100.00;100610.41;5056069;28;20479;-55
2022/05/05 06:38:51;;;;;;;0.40;0.40;;;;;;;13.74;100.00;100622.09;5049685;28;21022;-55
2022/05/05 06:41:17;;;;;;;0.50;0.50;;;;;;;13.88;100.00;100622.47;5054113;28;20518;-55
2022/05/05 06:43:44;;;;;;;0.87;0.87;;;;;;;14.13;100.00;100627.75;5040479;28;20528;-55
2022/05/05 06:46:11;;;;;;;1.60;0.80;;;;;;;13.99;100.00;100629.22;5053793;28;20471;-55
2022/05/05 06:48:38;;;;;;;0.40;0.30;;;;;;;14.03;100.00;100625.50;5053914;28;20512;-55
2022/05/05 06:51:05;;;;;;;0.90;0.87;;;;;;;14.21;100.00;100630.13;5054206;28;20458;-55
2022/05/05 06:53:31;;;;;;;0.77;0.77;;;;;;;14.08;100.00;100631.53;5049986;28;20852;-55
2022/05/05 06:56:00;;;;;;;0.30;0.20;;;;;;;14.01;100.00;100630.03;5043932;28;20532;-55
2022/05/05 06:58:27;;;;;;;0.30;0.30;;;;;;;13.98;100.00;100628.34;5053592;28;20498;-54
2022/05/05 07:03:38;;;;;;;0.30;0.20;;;;;;;13.87;100.00;100641.22;5034110;28;20450;-55
2022/05/05 07:06:10;;;;;;;0.30;0.20;;;;;;;13.84;100.00;100646.66;5047616;28;20475;-55
2022/05/05 07:11:23;;;;;;;0.90;0.90;;;;;;;13.88;100.00;100648.31;5053461;28;20857;-55
2022/05/05 07:13:50;;;;;;;0.30;0.20;;;;;;;13.96;100.00;100646.22;5053371;28;20497;-55
2022/05/05 07:16:17;;;;;;;0.97;0.97;;;;;;;14.06;100.00;100654.78;5053327;28;20994;-55
2022/05/05 07:18:44;;;;;;;0.60;0.60;;;;;;;14.06;100.00;100652.97;5053265;28;20454;-55
2022/05/05 07:21:10;;;;;;;1.47;1.47;;;;;;;14.08;100.00;100645.75;5051642;28;20490;-55
2022/05/05 07:23:37;;;;;;;2.63;1.70;;;;;;;14.27;100.00;100653.97;5053003;28;20451;-55
2022/05/05 07:26:04;;;;;;;0.30;0.20;;;;;;;14.24;100.00;100657.63;5039536;28;20870;-55
2022/05/05 07:28:30;;;;;;;0.30;0.20;;;;;;;14.28;99.70;100663.75;5053280;28;20450;-55
2022/05/05 07:30:57;;;;;;;0.50;0.50;;;;;;;14.40;100.00;100663.28;5054187;28;20477;-55
2022/05/05 07:33:25;;;;;;;18.73;1.60;;;;;;;14.50;100.00;100663.81;5053134;28;20454;-55
2022/05/05 07:35:51;;;;;;;0.50;0.50;;;;;;;14.67;100.00;100668.53;5060472;28;20502;-55
2022/05/05 07:38:18;;;;;;;0.30;0.20;;;;;;;14.90;100.00;100673.81;5044697;28;20887;-55
2022/05/05 07:40:47;;;;;;;0.30;0.20;;;;;;;15.28;98.98;100679.41;5052456;28;20486;-55
2022/05/05 07:43:13;;;;;;;0.30;0.20;;;;;;;15.17;99.61;100673.63;5033005;28;20456;-55
2022/05/05 07:45:40;;;;;;;0.40;0.30;;;;;;;14.95;98.82;100679.00;5052069;28;20478;-55
2022/05/05 07:48:07;;;;;;;0.43;0.40;;;;;;;14.99;99.72;100677.94;5052396;28;20827;-55
2022/05/05 07:50:34;;;;;;;0.30;0.20;;;;;;;15.15;100.00;100686.22;5052030;28;20509;-55
2022/05/05 07:53:00;;;;;;;0.50;0.50;;;;;;;15.24;100.00;100683.16;5039513;28;20452;-55
2022/05/05 07:55:27;;;;;;;0.30;0.30;;;;;;;15.41;100.00;100672.59;5052099;28;20478;-55
2022/05/05 07:57:54;;;;;;;0.30;0.20;;;;;;;15.97;99.55;100680.03;5052259;28;20455;-55
2022/05/05 08:00:21;;;;;;;0.47;0.47;;;;;;;15.76;97.71;100678.28;5052029;28;20508;-55
2022/05/05 08:02:48;;;;;;;0.37;0.20;;;;;;;15.41;96.60;100680.66;5051659;28;20524;-55
2022/05/05 08:05:15;;;;;;;0.30;0.20;;;;;;;15.55;97.26;100686.28;5041122;28;20509;-55
2022/05/05 08:07:48;;;;;;;0.40;0.30;;;;;;;16.24;95.46;100692.19;5037884;28;20454;-55
2022/05/05 08:10:17;;;;;;;0.50;0.50;;;;;;;15.76;95.30;100687.22;5052125;28;20459;-55
2022/05/05 08:12:47;;;;;;;0.37;0.20;;;;;;;15.70;98.49;100690.16;5052433;28;20450;-55
2022/05/05 08:15:16;;;;;;;0.47;0.47;;;;;;;16.12;94.91;100691.88;5052221;28;20466;-55
2022/05/05 08:17:44;;;;;;;0.40;0.30;;;;;;;16.11;92.60;100682.97;5051776;28;20454;-55
2022/05/05 08:20:12;;;;;;;0.40;0.30;;;;;;;16.44;90.69;100685.03;5052197;28;20982;-55
2022/05/05 08:22:38;;;;;;;0.30;0.30;;;;;;;16.15;92.48;100686.38;5035409;28;20491;-53
2022/05/05 08:30:36;;;;;;;0.40;0.30;;;;;;;16.39;89.04;100696.00;5051754;28;20485;-53
2022/05/05 08:33:03;;;;;;;0.97;0.97;;;;;;;16.86;87.71;100693.81;5052044;28;20450;-54
2022/05/05 08:35:31;;;;;;;0.70;0.70;;;;;;;16.94;82.59;100705.97;5062744;28;20490;-54
2022/05/05 08:37:57;;;;;;;0.50;0.50;;;;;;;17.09;84.07;100694.47;5041512;28;20451;-54
2022/05/05 08:40:26;;;;;;;0.40;0.30;;;;;;;16.78;86.47;100695.97;5052157;28;20458;-54
2022/05/05 08:42:53;;;;;;;0.43;0.43;;;;;;;16.46;89.38;100694.78;5042403;28;20503;-54
2022/05/05 08:45:21;;;;;;;1.53;1.43;;;;;;;16.45;88.49;100708.28;5048407;28;20466;-54
2022/05/05 08:47:48;;;;;;;0.87;0.87;;;;;;;16.29;89.52;100714.31;5051973;28;20476;-54
2022/05/05 08:50:15;;;;;;;0.50;0.50;;;;;;;16.50;87.82;100708.91;5051936;28;20450;-54
2022/05/05 08:52:50;;;;;;;0.40;0.30;;;;;;;16.92;84.09;100711.41;5041646;28;20538;-54
2022/05/05 08:55:18;;;;;;;0.40;0.30;;;;;;;16.91;84.23;100708.81;5049940;28;20474;-54
2022/05/05 08:57:46;;;;;;;3.73;0.70;;;;;;;16.52;84.87;100721.31;5051772;28;20500;-55
2022/05/05 09:00:15;;;;;;;0.40;0.20;;;;;;;16.67;85.81;100714.41;5051937;28;20505;-54
2022/05/05 09:02:43;;;;;;;0.90;0.50;;;;;;;16.53;86.00;100715.00;5051714;28;20486;-54
2022/05/05 09:05:10;;;;;;;0.40;0.30;;;;;;;17.12;84.63;100715.81;5051843;28;20475;-54
2022/05/05 09:07:48;;;;;;;2.43;2.23;;;;;;;17.11;83.67;100716.75;5051289;28;20993;-54
2022/05/05 09:10:20;;;;;;;0.30;0.30;;;;;;;17.38;83.81;100714.53;5031568;28;20456;-54
2022/05/05 09:13:00;;;;;;;0.30;0.20;;;;;;;16.86;83.96;100717.97;5046947;28;20454;-54
2022/05/05 09:15:35;;;;;;;1.53;1.43;;;;;;;17.21;85.21;100717.19;5033935;28;20474;-54
2022/05/05 09:18:15;;;;;;;0.30;0.20;;;;;;;17.10;83.37;100717.72;5051379;28;20443;-54
2022/05/05 09:20:43;;;;;;;0.40;0.30;;;;;;;17.34;84.58;100712.97;5054053;28;20534;-54
2022/05/05 09:23:34;;;;;;;0.30;0.20;;;;;;;17.37;80.68;100718.16;5043129;28;20473;-54
2022/05/05 09:26:03;;;;;;;2.97;1.33;;;;;;;17.80;78.91;100711.53;5055291;28;20466;-54
2022/05/05 09:28:32;;;;;;;0.40;0.30;;;;;;;17.77;73.84;100714.38;5055331;28;20947;-54
2022/05/05 09:31:05;;;;;;;1.70;1.60;;;;;;;17.54;74.33;100712.81;5055557;28;20477;-53
2022/05/05 09:33:38;;;;;;;11.43;3.90;;;;;;;17.68;71.30;100706.72;5055174;28;20453;-53
2022/05/05 09:36:08;;;;;;;2.97;2.70;;;;;;;17.86;73.53;100719.28;5055528;28;20471;-54
2022/05/05 09:39:02;;;;;;;0.30;0.20;;;;;;;17.79;73.69;100719.66;5055287;28;20455;-54
2022/05/05 09:41:32;;;;;;;0.63;0.60;;;;;;;18.13;72.89;100719.66;5055232;28;20544;-54
2022/05/05 09:44:11;;;;;;;0.97;0.97;;;;;;;18.03;70.21;100721.97;5055284;28;20438;-54
2022/05/05 09:46:38;;;;;;;0.43;0.37;;;;;;;18.35;68.83;100716.69;5054692;28;20531;-54
2022/05/05 09:49:21;;;;;;;0.30;0.30;;;;;;;18.17;67.27;100720.38;5054952;28;20454;-54
2022/05/05 09:57:39;;;;;;;0.30;0.20;;;;;;;18.17;65.55;100723.06;5052544;28;20492;-53
2022/05/05 09:57:43;;;;;;;0.30;0.20;;;;;;;17.73;68.18;100726.25;5043439;28;20451;-54
2022/05/05 10:05:52;;;;;;;0.40;0.20;;;;;;;18.19;67.65;100734.59;5054608;28;20474;-54
2022/05/05 10:08:23;;;;;;;3.57;0.93;;;;;;;18.39;67.97;100731.72;5054273;28;21091;-54
2022/05/05 10:10:52;;;;;;;0.50;0.50;;;;;;;18.41;67.09;100729.81;5054479;28;20868;-54
2022/05/05 10:13:23;;;;;;;0.40;0.30;;;;;;;18.35;64.53;100732.81;5054292;28;20450;-54
2022/05/05 10:15:51;;;;;;;0.40;0.20;;;;;;;18.31;66.82;100732.13;5054574;28;20467;-53
2022/05/05 10:18:27;;;;;;;0.40;0.20;;;;;;;18.20;66.66;100725.56;5034526;28;20475;-54
2022/05/05 10:20:57;;;;;;;1.70;0.67;;;;;;;18.30;68.54;100729.53;5047168;28;20451;-54
2022/05/05 10:24:09;;;;;;;0.40;0.40;;;;;;;18.53;64.87;100726.47;5043324;28;20443;-54
2022/05/05 10:26:36;;;;;;;0.90;0.90;;;;;;;18.25;64.70;100721.72;4961975;28;20482;-54
2022/05/05 10:29:03;;;;;;;0.40;0.30;;;;;;;18.69;63.76;100717.56;5043777;28;20451;-53
2022/05/05 10:31:37;;;;;;;0.30;0.20;;;;;;;19.13;62.55;100733.94;5053467;28;20874;-54
2022/05/05 10:34:08;;;;;;;0.40;0.20;;;;;;;18.98;62.62;100730.28;5057768;28;20496;-54
2022/05/05 10:36:36;;;;;;;0.40;0.40;;;;;;;18.94;63.07;100734.13;5052182;28;20464;-54
2022/05/05 10:39:19;;;;;;;1.07;0.70;;;;;;;19.08;61.97;100736.91;5052206;28;20450;-54
2022/05/05 10:41:46;;;;;;;1.80;1.70;;;;;;;18.86;62.81;100728.28;5053977;28;20526;-54
2022/05/05 10:44:16;;;;;;;3.47;0.83;;;;;;;18.92;63.74;100726.13;5053881;28;20803;-54
2022/05/05 10:47:03;;;;;;;2.10;1.37;;;;;;;19.64;62.96;100727.38;5053761;28;20474;-54
2022/05/05 10:49:41;;;;;;;0.40;0.40;;;;;;;19.14;62.46;100727.59;5053762;28;20501;-54
2022/05/05 10:52:08;;;;;;;1.57;1.50;;;;;;;18.95;63.50;100727.78;5048700;28;20443;-54
2022/05/05 10:54:36;;;;;;;0.83;0.83;;;;;;;18.90;61.86;100728.00;5034066;28;20456;-54
2022/05/05 10:57:24;;;;;;;0.40;0.20;;;;;;;19.28;63.10;100719.56;5052932;28;20898;-53
2022/05/05 11:00:15;;;;;;;0.50;0.40;;;;;;;19.29;62.68;100707.84;5052276;28;20492;-54
2022/05/05 11:03:03;;;;;;;0.87;0.87;;;;;;;19.29;61.14;100713.22;5043514;28;20564;-54
2022/05/05 11:05:35;;;;;;;0.40;0.20;;;;;;;19.42;61.84;100708.84;5033807;28;20526;-54
2022/05/05 11:08:17;;;;;;;4.37;2.07;;;;;;;20.23;60.03;100709.41;5048631;28;20471;-54
2022/05/05 11:10:45;;;;;;;0.40;0.30;;;;;;;20.25;61.88;100704.78;5053163;28;20475;-54
2022/05/05 11:13:32;;;;;;;0.40;0.30;;;;;;;20.87;58.65;100702.66;5053381;28;20447;-54
2022/05/05 11:22:14;;;;;;;0.57;0.57;;;;;;;20.49;54.85;100715.91;5040713;28;20483;-54
2022/05/05 11:24:47;;;;;;;0.50;0.30;;;;;;;20.94;54.50;100714.81;5033288;28;20491;-54
2022/05/05 11:27:18;;;;;;;0.40;0.20;;;;;;;20.21;56.56;100711.34;5046948;28;20450;-54
2022/05/05 11:29:50;;;;;;;0.40;0.30;;;;;;;20.62;57.40;100707.91;5053093;28;20450;-54
2022/05/05 11:32:17;;;;;;;0.83;0.83;;;;;;;20.98;57.29;100708.25;5053106;28;20451;-54
2022/05/05 11:34:45;;;;;;;0.40;0.30;;;;;;;21.24;54.42;100713.75;5061902;28;20445;-54
2022/05/05 11:37:13;;;;;;;0.50;0.40;;;;;;;20.76;54.34;100717.84;5043618;28;20459;-54
2022/05/05 11:39:41;;;;;;;0.50;0.40;;;;;;;20.83;54.52;100719.16;5052577;28;20443;-54
2022/05/05 11:42:11;;;;;;;1.23;1.23;;;;;;;20.35;57.21;100722.13;5049290;28;20545;-54
2022/05/05 11:44:40;;;;;;;0.40;0.30;;;;;;;20.44;51.36;100715.34;5042596;28;20955;-54
2022/05/05 11:47:13;;;;;;;0.50;0.40;;;;;;;19.76;53.24;100710.47;5052411;28;20481;-54
2022/05/05 11:49:43;;;;;;;4.10;2.30;;;;;;;19.92;54.48;100721.22;5052823;28;20455;-54
2022/05/05 11:52:11;;;;;;;3.80;0.50;;;;;;;19.55;53.55;100721.66;5047006;28;20447;-54
2022/05/05 11:54:38;;;;;;;7.97;0.60;;;;;;;19.61;56.34;100719.50;5044801;28;20451;-54
2022/05/05 11:57:05;;;;;;;0.40;0.40;;;;;;;20.00;55.94;100713.50;5052381;28;20455;-54
2022/05/05 12:02:19;;;;;;;1.23;1.13;;;;;;;19.66;57.16;100711.97;5052098;28;20482;-54
2022/05/05 12:04:51;;;;;;;0.40;0.20;;;;;;;19.82;56.02;100715.50;5052356;28;20457;-54
2022/05/05 12:07:22;;;;;;;1.90;1.80;;;;;;;19.59;54.87;100720.50;5052430;28;20451;-54
2022/05/05 12:09:50;;;;;;;0.40;0.30;;;;;;;19.29;55.45;100720.44;5052009;28;20458;-54
2022/05/05 12:12:19;;;;;;;0.40;0.27;;;;;;;19.34;56.67;100718.38;5034642;28;20821;-54